Latest Coastal Weather Observations for Port Pirie Airport AWS***

IDS60701

Issued at 10:25 pm CDT Saturday 25 October 2014 (issued every 10 minutes, with the page automatically refreshed every 10 minutes)

About coastal observations | Map of coastal stations | Coastal observations for SA | Marine services | Other Formats
Station Details ID: 250006 Name: PORT PIRIE AERODROME AWS Lat: -33.23 Lon: 138.00 Height: 10.0 m
Data from the previous 72 hours. | See also: Recent months for locations in South Australia
Date/Time
CDT
Temp

°C
Wind Pressure Rain
since 9am
mm
Weather Cloud Vis
km
Sea
Height
m
Swell
Dir
 
Speed
knots
Gust
knots
hPa Trend Height
m
Period
s
Dir
25/10:00pm 16.7 NNE 2 2 - - 0.0 - - - - - - -
25/09:30pm 17.3 WNW 1 1 - - 0.0 - - - - - - -
25/09:00pm 18.2 WSW 2 4 - - 0.0 - - - - - - -
25/08:30pm 18.9 WSW 4 7 - - 0.0 - - - - - - -
25/08:00pm 19.9 WSW 6 8 - - 0.0 - - - - - - -
25/07:30pm 22.1 WSW 4 6 - - 0.0 - - - - - - -
25/07:00pm 24.0 SW 4 7 - - 0.0 - - - - - - -
25/06:30pm 25.0 SW 6 9 - - 0.0 - - - - - - -
25/06:00pm 25.8 WSW 7 11 - - 0.0 - - - - - - -
25/05:30pm 26.4 SW 9 13 - - 0.0 - - - - - - -
25/05:00pm 26.7 SW 9 14 - - 0.0 - - - - - - -
25/04:30pm 26.9 SSW 8 12 - - 0.0 - - - - - - -
25/04:00pm 27.6 WSW 7 13 - - 0.0 - - - - - - -
25/03:30pm 27.5 SW 7 10 - - 0.0 - - - - - - -
25/03:00pm 27.8 SW 5 10 - - 0.0 - - - - - - -
25/02:30pm 26.5 SSW 4 9 - - 0.0 - - - - - - -
25/02:00pm 25.2 SSW 7 10 - - 0.0 - - - - - - -
25/01:30pm 24.2 WSW 6 13 - - 0.0 - - - - - - -
25/01:00pm 24.0 WSW 6 12 - - 0.0 - - - - - - -
25/12:30pm 24.3 WSW 5 12 - - 0.0 - - - - - - -
25/12:00pm 23.8 WSW 5 9 - - 0.0 - - - - - - -
25/11:30am 23.4 SW 5 10 - - 0.0 - - - - - - -
25/11:00am 23.0 W 4 8 - - 0.0 - - - - - - -
25/10:30am 22.1 SW 5 9 - - 0.0 - - - - - - -
25/10:00am 20.9 SSW 3 7 - - 0.0 - - - - - - -
25/09:30am 20.2 SSW 6 10 - - 0.0 - - - - - - -
25/09:00am 19.2 S 3 7 - - 0.0 - - - - - - -
25/08:30am 18.7 SE 2 6 - - 0.0 - - - - - - -
25/08:00am 17.6 E 2 4 - - 0.0 - - - - - - -
25/07:30am 15.7 ENE 2 3 - - 0.0 - - - - - - -
25/07:00am 13.9 ENE 1 2 - - 0.0 - - - - - - -
25/06:30am 14.2 N 1 2 - - 0.0 - - - - - - -
25/06:00am 15.0 CALM 0 1 - - 0.0 - - - - - - -
25/05:30am 14.9 SSE 1 1 - - 0.0 - - - - - - -
25/05:00am 15.4 SE 4 5 - - 0.0 - - - - - - -
25/04:30am 14.1 S 5 5 - - 0.0 - - - - - - -
25/04:00am 15.4 SSW 3 4 - - 0.0 - - - - - - -
25/03:30am 14.9 NNE 1 1 - - 0.0 - - - - - - -
25/03:00am 14.4 E 3 4 - - 0.0 - - - - - - -
25/02:30am 17.3 SW 2 4 - - 0.0 - - - - - - -
25/02:00am 17.8 SW 5 7 - - 0.0 - - - - - - -
25/01:30am 16.7 S 5 7 - - 0.0 - - - - - - -
25/01:00am 17.6 S 3 5 - - 0.0 - - - - - - -
25/12:30am 17.6 SE 4 7 - - 0.0 - - - - - - -
25/12:00am 17.8 SE 3 5 - - 0.0 - - - - - - -
 
Date/Time
CDT
Temp

°C
Wind Pressure Rain
since 9am
mm
Weather Cloud Vis
km
Sea
Height
m
Swell
Dir
 
Speed
knots
Gust
knots
hPa Trend Height
m
Period
s
Dir
24/11:30pm 19.0 SSW 2 4 - - 0.0 - - - - - - -
24/11:00pm 20.1 WSW 3 5 - - 0.0 - - - - - - -
24/10:30pm 20.2 N 1 3 - - 0.0 - - - - - - -
24/10:00pm 21.3 SW 1 2 - - 0.0 - - - - - - -
24/09:30pm 21.6 SSE 2 3 - - 0.0 - - - - - - -
24/09:00pm 23.3 S 7 10 - - 0.0 - - - - - - -
24/08:30pm 22.8 SW 11 16 - - 0.0 - - - - - - -
24/08:00pm 23.7 SW 11 15 - - 0.0 - - - - - - -
24/07:30pm 25.2 SW 10 13 - - 0.0 - - - - - - -
24/07:00pm 28.6 WSW 9 18 - - 0.0 - - - - - - -
24/06:54pm 31.0 W 5 12 - - 0.0 - - - - - - -
24/06:30pm 36.4 S 1 2 - - 0.0 - - - - - - -
24/06:00pm 36.8 SSE 2 6 - - 0.0 - - - - - - -
24/05:30pm 37.1 E 2 4 - - 0.0 - - - - - - -
24/05:00pm 36.1 ESE 3 7 - - 0.0 - - - - - - -
24/04:30pm 36.5 SW 4 9 - - 0.0 - - - - - - -
24/04:00pm 36.8 NW 2 7 - - 0.0 - - - - - - -
24/03:30pm 36.4 WSW 4 9 - - 0.0 - - - - - - -
24/03:00pm 35.4 WSW 3 7 - - 0.0 - - - - - - -
24/02:30pm 35.8 W 4 8 - - 0.0 - - - - - - -
24/02:00pm 34.6 NW 5 11 - - 0.0 - - - - - - -
24/01:30pm 33.7 NW 5 8 - - 0.0 - - - - - - -
24/01:00pm 32.9 NW 6 10 - - 0.0 - - - - - - -
24/12:30pm 32.7 NNW 6 11 - - 0.0 - - - - - - -
24/12:00pm 32.4 N 7 12 - - 0.0 - - - - - - -
24/11:30am 31.7 NNW 8 13 - - 0.0 - - - - - - -
24/11:00am 30.4 NW 8 13 - - 0.0 - - - - - - -
24/10:30am 28.5 WNW 2 5 - - 0.0 - - - - - - -
24/10:00am 26.4 N 4 7 - - 0.0 - - - - - - -
24/09:30am 24.3 N 5 8 - - 0.0 - - - - - - -
24/09:00am 22.1 NNE 4 6 - - 0.0 - - - - - - -
24/08:30am 19.7 N 2 4 - - 0.0 - - - - - - -
24/08:00am 17.4 ENE 1 2 - - 0.0 - - - - - - -
24/07:30am 15.0 ESE 3 5 - - 0.0 - - - - - - -
24/07:00am 14.5 N 1 2 - - 0.0 - - - - - - -
24/06:30am 14.8 N 1 2 - - 0.0 - - - - - - -
24/06:00am 15.7 N 3 5 - - 0.0 - - - - - - -
24/05:30am 14.3 N 3 4 - - 0.0 - - - - - - -
24/05:00am 14.1 ENE 5 6 - - 0.0 - - - - - - -
24/04:30am 15.0 SSW 3 4 - - 0.0 - - - - - - -
24/04:00am 14.7 W 2 4 - - 0.0 - - - - - - -
24/03:30am 14.3 NNW 1 2 - - 0.0 - - - - - - -
24/03:00am 13.6 ENE 3 3 - - 0.0 - - - - - - -
24/02:30am 13.4 ESE 3 3 - - 0.0 - - - - - - -
24/02:00am 13.4 SSE 2 3 - - 0.0 - - - - - - -
24/01:30am 14.2 SW 3 4 - - 0.0 - - - - - - -
24/01:00am 14.2 ESE 2 5 - - 0.0 - - - - - - -
24/12:30am 15.2 SSE 1 3 - - 0.0 - - - - - - -
24/12:00am 16.4 WSW 2 4 - - 0.0 - - - - - - -
 
Date/Time
CDT
Temp

°C
Wind Pressure Rain
since 9am
mm
Weather Cloud Vis
km
Sea
Height
m
Swell
Dir
 
Speed
knots
Gust
knots
hPa Trend Height
m
Period
s
Dir
23/11:30pm 16.4 W 2 4 - - 0.0 - - - - - - -
23/11:00pm 17.1 SW 1 2 - - 0.0 - - - - - - -
23/10:30pm 16.1 E 2 3 - - 0.0 - - - - - - -
23/10:00pm 16.9 ESE 2 3 - - 0.0 - - - - - - -
23/09:30pm 17.4 SE 3 3 - - 0.0 - - - - - - -
23/09:00pm 18.1 SSW 5 6 - - 0.0 - - - - - - -
23/08:30pm 18.8 SW 7 10 - - 0.0 - - - - - - -
23/08:00pm 18.9 SW 8 11 - - 0.0 - - - - - - -
23/07:30pm 19.5 SW 9 13 - - 0.0 - - - - - - -
23/07:00pm 22.1 SW 6 9 - - 0.0 - - - - - - -
23/06:30pm 23.5 S 5 8 - - 0.0 - - - - - - -
23/06:00pm 23.5 S 5 7 - - 0.0 - - - - - - -
23/05:30pm 23.8 S 7 9 - - 0.0 - - - - - - -
23/05:00pm 23.7 SSW 7 10 - - 0.0 - - - - - - -
23/04:30pm 24.5 SSW 8 12 - - 0.0 - - - - - - -
23/04:00pm 24.2 SW 8 12 - - 0.0 - - - - - - -
23/03:30pm 23.6 SW 9 13 - - 0.0 - - - - - - -
23/03:00pm 24.0 SW 8 13 - - 0.0 - - - - - - -
23/02:30pm 24.9 WSW 8 13 - - 0.0 - - - - - - -
23/02:00pm 25.2 WSW 8 14 - - 0.0 - - - - - - -
23/01:30pm 25.0 SW 8 12 - - 0.0 - - - - - - -
23/01:00pm 24.8 WSW 6 13 - - 0.0 - - - - - - -
23/12:30pm 23.6 SSW 6 11 - - 0.0 - - - - - - -
23/12:00pm 22.5 SW 7 13 - - 0.0 - - - - - - -
23/11:30am 22.6 SSW 5 12 - - 0.0 - - - - - - -
23/11:00am 21.1 SSW 4 8 - - 0.0 - - - - - - -
23/10:30am 20.5 S 5 10 - - 0.0 - - - - - - -
23/10:00am 19.1 SSE 6 10 - - 0.0 - - - - - - -
23/09:30am 18.4 SE 6 11 - - 0.0 - - - - - - -
23/09:00am 17.4 SSE 7 12 - - 0.0 - - - - - - -
23/08:30am 16.6 SE 7 10 - - 0.0 - - - - - - -
23/08:00am 16.2 SE 7 10 - - 0.0 - - - - - - -
23/07:30am 15.9 SSE 6 9 - - 0.0 - - - - - - -
23/07:00am 15.5 SSE 6 9 - - 0.0 - - - - - - -
23/06:30am 15.5 SE 3 6 - - 0.0 - - - - - - -
23/06:00am 15.5 SSE 5 7 - - 0.0 - - - - - - -
23/05:30am 15.5 SSE 4 7 - - 0.0 - - - - - - -
23/05:00am 15.7 SSE 4 6 - - 0.0 - - - - - - -
23/04:30am 15.7 S 6 8 - - 0.0 - - - - - - -
23/04:00am 15.9 S 5 8 - - 0.0 - - - - - - -
23/03:30am 16.0 S 7 11 - - 0.0 - - - - - - -
23/03:00am 16.0 S 5 9 - - 0.0 - - - - - - -
23/02:30am 15.8 S 4 7 - - 0.0 - - - - - - -
23/02:00am 15.1 S 5 7 - - 0.0 - - - - - - -
23/01:30am 15.2 SSW 5 6 - - 0.0 - - - - - - -
23/01:00am 14.3 SSW 6 7 - - 0.0 - - - - - - -
23/12:30am 13.2 SSW 4 5 - - 0.0 - - - - - - -
23/12:00am 13.8 S 4 5 - - 0.0 - - - - - - -
 
Date/Time
CDT
Temp

°C
Wind Pressure Rain
since 9am
mm
Weather Cloud Vis
km
Sea
Height
m
Swell
Dir
 
Speed
knots
Gust
knots
hPa Trend Height
m
Period
s
Dir
22/11:30pm 14.1 SSE 4 5 - - 0.0 - - - - - - -
22/11:00pm 14.7 S 5 7 - - 0.0 - - - - - - -
22/10:30pm 16.0 SE 6 9 - - 0.0 - - - - - - -

Other Formats:

Comma delimited format used in spreadsheet applications
http://www.bom.gov.au/fwo/IDS60701/IDS60701.99001.axf

JavaScript Object Notation format (JSON) in row-major order
http://www.bom.gov.au/fwo/IDS60701/IDS60701.99001.json